createdAt,value
2018-09-17T00:00:55.045Z,16.24
2018-09-17T00:03:23.269Z,16.23
2018-09-17T00:05:51.705Z,16.23
2018-09-17T00:08:20.177Z,16.21
2018-09-17T00:10:48.737Z,16.19
2018-09-17T00:13:17.213Z,16.20
2018-09-17T00:15:45.870Z,16.25
2018-09-17T00:18:14.216Z,16.28
2018-09-17T00:20:42.670Z,16.29
2018-09-17T00:23:11.388Z,16.17
2018-09-17T00:25:40.134Z,16.03
2018-09-17T00:28:08.266Z,15.94
2018-09-17T00:30:36.733Z,15.90
2018-09-17T00:33:04.860Z,15.86
2018-09-17T00:35:33.029Z,15.85
2018-09-17T00:38:01.321Z,15.87
2018-09-17T00:40:29.814Z,15.89
2018-09-17T00:42:57.956Z,15.91
2018-09-17T00:45:26.461Z,15.96
2018-09-17T00:47:54.824Z,16.01
2018-09-17T00:50:22.970Z,15.92
2018-09-17T00:52:51.437Z,15.74
2018-09-17T00:55:19.688Z,15.68
2018-09-17T00:57:47.905Z,15.74
2018-09-17T01:00:16.796Z,15.79
2018-09-17T01:02:45.273Z,15.70
2018-09-17T01:05:13.762Z,15.47
2018-09-17T01:07:41.909Z,15.22
2018-09-17T01:10:12.324Z,15.10
2018-09-17T01:12:40.490Z,15.14
2018-09-17T01:15:08.968Z,15.28
2018-09-17T01:17:37.097Z,15.46
2018-09-17T01:20:05.901Z,15.63
2018-09-17T01:22:34.024Z,15.72
2018-09-17T01:25:02.573Z,15.76
2018-09-17T01:27:30.932Z,15.78
2018-09-17T01:29:59.260Z,15.79
2018-09-17T01:32:32.297Z,15.68
2018-09-17T01:35:06.416Z,15.50
2018-09-17T01:37:34.988Z,15.30
2018-09-17T01:40:08.025Z,15.16
2018-09-17T01:42:36.337Z,15.12
2018-09-17T01:45:04.463Z,15.17
2018-09-17T01:47:32.936Z,15.19
2018-09-17T01:50:01.403Z,15.17
2018-09-17T01:52:30.069Z,15.19
2018-09-17T01:54:58.568Z,15.24
2018-09-17T01:57:26.677Z,15.28
2018-09-17T01:59:55.325Z,15.30
2018-09-17T02:02:23.814Z,15.31
2018-09-17T02:04:52.151Z,15.37
2018-09-17T02:07:20.877Z,15.48
2018-09-17T02:09:49.079Z,15.52
2018-09-17T02:12:19.203Z,15.55
2018-09-17T02:14:47.668Z,15.61
2018-09-17T02:17:16.112Z,15.66
2018-09-17T02:19:44.245Z,15.68
2018-09-17T02:22:12.709Z,15.71
2018-09-17T02:24:40.861Z,15.74
2018-09-17T02:27:08.994Z,15.78
2018-09-17T02:29:37.419Z,15.79
2018-09-17T02:32:06.223Z,15.78
2018-09-17T02:34:34.564Z,15.77
2018-09-17T02:37:02.712Z,15.73
2018-09-17T02:39:31.153Z,15.67
2018-09-17T02:41:59.289Z,15.62
2018-09-17T02:44:27.925Z,15.60
2018-09-17T02:46:56.421Z,15.58
2018-09-17T02:49:24.548Z,15.55
2018-09-17T02:51:53.225Z,15.50
2018-09-17T02:54:21.911Z,15.43
2018-09-17T02:56:50.413Z,15.36
2018-09-17T02:59:18.748Z,15.33
2018-09-17T03:01:47.255Z,15.35
2018-09-17T03:04:15.877Z,15.36
2018-09-17T03:06:44.040Z,15.35
2018-09-17T03:09:12.437Z,15.35
2018-09-17T03:11:41.253Z,15.33
2018-09-17T03:14:09.377Z,15.31
2018-09-17T03:16:48.780Z,15.31
2018-09-17T03:19:17.247Z,15.32
2018-09-17T03:21:45.589Z,15.31
2018-09-17T03:24:13.961Z,15.30
2018-09-17T03:26:42.101Z,15.29
2018-09-17T03:29:10.533Z,15.26
2018-09-17T03:31:39.075Z,15.24
2018-09-17T03:34:07.200Z,15.22
2018-09-17T03:36:35.334Z,15.21
2018-09-17T03:39:04.757Z,15.20
2018-09-17T03:41:32.927Z,15.19
2018-09-17T03:44:01.396Z,15.18
2018-09-17T03:46:30.110Z,15.16
2018-09-17T03:48:58.386Z,15.08
2018-09-17T03:51:26.541Z,14.94
2018-09-17T03:53:54.697Z,14.82
2018-09-17T03:56:22.810Z,14.77
2018-09-17T03:58:51.035Z,14.75
2018-09-17T04:01:19.737Z,14.75
2018-09-17T04:03:48.365Z,14.70
2018-09-17T04:06:16.837Z,14.67
2018-09-17T04:08:45.145Z,14.69
2018-09-17T04:11:14.978Z,14.75
2018-09-17T04:13:45.121Z,14.78
2018-09-17T04:16:13.289Z,14.80
2018-09-17T04:18:41.407Z,14.79
2018-09-17T04:21:09.556Z,14.77
2018-09-17T04:23:38.388Z,14.69
2018-09-17T04:26:07.977Z,14.67
2018-09-17T04:28:36.597Z,14.70
2018-09-17T04:31:05.309Z,14.72
2018-09-17T04:33:35.486Z,14.72
2018-09-17T04:36:03.945Z,14.73
2018-09-17T04:38:32.116Z,14.67
2018-09-17T04:41:00.248Z,14.53
2018-09-17T04:43:28.427Z,14.34
2018-09-17T04:45:56.895Z,14.16
2018-09-17T04:48:25.806Z,14.08
2018-09-17T04:50:54.465Z,14.07
2018-09-17T04:53:23.193Z,14.10
2018-09-17T04:55:51.660Z,14.15
2018-09-17T04:58:20.261Z,14.21
2018-09-17T05:00:48.816Z,14.28
2018-09-17T05:03:17.320Z,14.31
2018-09-17T05:05:45.813Z,14.33
2018-09-17T05:08:14.008Z,14.35
2018-09-17T05:10:42.668Z,14.34
2018-09-17T05:13:11.267Z,14.33
2018-09-17T05:15:39.825Z,14.33
2018-09-17T05:18:08.007Z,14.36
2018-09-17T05:20:36.515Z,14.37
2018-09-17T05:23:04.884Z,14.35
2018-09-17T05:25:33.072Z,14.27
2018-09-17T05:28:01.949Z,14.16
2018-09-17T05:30:30.110Z,14.09
2018-09-17T05:32:58.258Z,14.10
2018-09-17T05:35:26.741Z,14.14
2018-09-17T05:37:55.145Z,14.14
2018-09-17T05:40:23.629Z,14.15
2018-09-17T05:42:51.997Z,14.19
2018-09-17T05:45:20.513Z,14.19
2018-09-17T05:47:49.057Z,14.05
2018-09-17T05:50:17.544Z,13.91
2018-09-17T05:52:45.684Z,13.80
2018-09-17T05:55:14.184Z,13.74
2018-09-17T05:57:42.624Z,13.70
2018-09-17T06:00:10.789Z,13.68
2018-09-17T06:02:38.973Z,13.68
2018-09-17T06:05:07.701Z,13.69
2018-09-17T06:07:36.190Z,13.71
2018-09-17T06:10:14.806Z,13.76
2018-09-17T06:12:44.093Z,13.80
2018-09-17T06:15:12.274Z,13.82
2018-09-17T06:17:40.446Z,13.84
2018-09-17T06:20:09.546Z,13.85
2018-09-17T06:22:37.706Z,13.86
2018-09-17T06:25:05.971Z,13.86
2018-09-17T06:27:34.187Z,13.87
2018-09-17T06:30:02.696Z,13.89
2018-09-17T06:32:31.096Z,13.93
2018-09-17T06:34:59.603Z,14.00
2018-09-17T06:37:27.974Z,14.08
2018-09-17T06:39:56.901Z,14.17
2018-09-17T06:42:25.271Z,14.25
2018-09-17T06:44:53.476Z,14.34
2018-09-17T06:47:22.121Z,14.47
2018-09-17T06:49:50.758Z,14.56
2018-09-17T06:52:19.224Z,14.70
2018-09-17T06:54:47.719Z,14.84
2018-09-17T06:57:15.871Z,15.00
2018-09-17T06:59:44.045Z,15.19
2018-09-17T07:02:13.017Z,15.43
2018-09-17T07:04:41.216Z,15.70
2018-09-17T07:07:09.365Z,15.95
2018-09-17T07:09:37.521Z,16.17
2018-09-17T07:12:06.948Z,16.42
2018-09-17T07:14:35.108Z,16.68
2018-09-17T07:17:03.494Z,16.91
2018-09-17T07:19:31.985Z,17.12
2018-09-17T07:22:00.137Z,17.35
2018-09-17T07:24:28.279Z,17.54
2018-09-17T07:26:56.417Z,17.75
2018-09-17T07:29:24.610Z,17.97
2018-09-17T07:31:53.085Z,18.15
2018-09-17T07:34:21.228Z,18.37
2018-09-17T07:36:49.636Z,18.58
2018-09-17T07:39:20.769Z,18.80
2018-09-17T07:41:48.917Z,19.05
2018-09-17T07:44:18.306Z,19.28
2018-09-17T07:46:46.985Z,19.46
2018-09-17T07:49:15.465Z,19.62
2018-09-17T07:51:43.661Z,19.75
2018-09-17T07:54:12.369Z,19.89
2018-09-17T07:56:41.383Z,20.06
2018-09-17T07:59:09.909Z,20.26
2018-09-17T08:01:38.076Z,20.48
2018-09-17T08:04:06.663Z,20.66
2018-09-17T08:06:34.829Z,20.80
2018-09-17T08:09:03.075Z,20.99
2018-09-17T08:11:34.960Z,21.17
2018-09-17T08:14:04.021Z,21.36
2018-09-17T08:16:32.521Z,21.52
2018-09-17T08:19:01.062Z,21.61
2018-09-17T08:21:29.228Z,21.73
2018-09-17T08:23:57.569Z,21.93
2018-09-17T08:26:26.049Z,22.14
2018-09-17T08:28:54.233Z,22.29
2018-09-17T08:31:22.438Z,22.48
2018-09-17T08:33:50.754Z,22.65
2018-09-17T08:36:19.237Z,22.86
2018-09-17T08:38:48.638Z,23.06
2018-09-17T08:41:17.000Z,23.19
2018-09-17T08:43:49.428Z,23.34
2018-09-17T08:46:26.927Z,23.45
2018-09-17T08:48:55.649Z,23.62
2018-09-17T08:51:23.791Z,23.78
2018-09-17T08:53:51.912Z,23.95
2018-09-17T08:56:20.452Z,24.10
2018-09-17T08:58:54.527Z,24.03
2018-09-17T09:01:28.030Z,23.96
2018-09-17T09:04:01.975Z,23.97
2018-09-17T09:06:38.009Z,24.04
2018-09-17T09:09:09.849Z,24.19
2018-09-17T09:11:44.805Z,24.50
2018-09-17T09:14:18.600Z,24.70
2018-09-17T09:16:50.449Z,24.88
2018-09-17T09:19:28.443Z,25.07
2018-09-17T09:21:57.098Z,25.20
2018-09-17T09:24:25.251Z,25.51
2018-09-17T09:26:53.749Z,25.75
2018-09-17T09:29:22.200Z,25.93
2018-09-17T09:31:50.681Z,26.07
2018-09-17T09:34:18.828Z,26.14
2018-09-17T09:36:46.975Z,26.28
2018-09-17T09:39:15.457Z,26.37
2018-09-17T09:41:43.626Z,26.40
2018-09-17T09:44:12.360Z,26.42
2018-09-17T09:46:40.527Z,26.50
2018-09-17T09:49:09.266Z,26.44
2018-09-17T09:51:37.417Z,26.45
2018-09-17T09:54:05.973Z,26.37
2018-09-17T09:56:34.493Z,26.25
2018-09-17T09:59:02.651Z,26.22
2018-09-17T10:01:37.066Z,26.27
2018-09-17T10:04:11.134Z,26.24
2018-09-17T10:06:39.606Z,26.12
2018-09-17T10:09:13.397Z,26.13
2018-09-17T10:11:49.297Z,26.20
2018-09-17T10:14:22.776Z,26.19
2018-09-17T10:16:56.384Z,26.30
2018-09-17T10:19:25.584Z,26.40
2018-09-17T10:21:54.185Z,26.54
2018-09-17T10:24:22.704Z,26.61
2018-09-17T10:26:54.249Z,26.71
2018-09-17T10:29:22.713Z,26.91
2018-09-17T10:31:51.186Z,27.03
2018-09-17T10:34:19.321Z,27.03
2018-09-17T10:36:47.792Z,27.10
2018-09-17T10:39:15.978Z,27.10
2018-09-17T10:41:44.200Z,26.96
2018-09-17T10:44:12.363Z,26.90
2018-09-17T10:46:41.048Z,26.91
2018-09-17T10:49:09.674Z,26.85
2018-09-17T10:51:38.350Z,26.70
2018-09-17T10:54:06.891Z,26.59
2018-09-17T10:56:35.344Z,26.64
2018-09-17T10:59:13.136Z,26.88
2018-09-17T11:01:41.618Z,27.19
2018-09-17T11:04:09.804Z,27.55
2018-09-17T11:06:38.189Z,27.86
2018-09-17T11:09:08.492Z,27.95
2018-09-17T11:11:37.475Z,27.83
2018-09-17T11:14:06.364Z,27.75
2018-09-17T11:16:34.594Z,27.66
2018-09-17T11:19:03.316Z,27.83
2018-09-17T11:21:31.430Z,28.01
2018-09-17T11:23:59.649Z,28.25
2018-09-17T11:26:28.129Z,28.36
2018-09-17T11:28:56.780Z,28.59
2018-09-17T11:31:24.963Z,28.86
2018-09-17T11:33:59.326Z,28.87
2018-09-17T11:36:33.458Z,28.92
2018-09-17T11:39:01.949Z,28.87
2018-09-17T11:41:30.105Z,28.66
2018-09-17T11:43:58.476Z,28.51
2018-09-17T11:46:26.637Z,28.37
2018-09-17T11:48:55.260Z,28.37
2018-09-17T11:51:23.755Z,28.37
2018-09-17T11:53:52.085Z,28.47
2018-09-17T11:56:20.754Z,28.47
2018-09-17T11:58:48.933Z,28.52
2018-09-17T12:01:25.603Z,28.59
2018-09-17T12:03:59.520Z,28.71
2018-09-17T12:06:33.098Z,28.78
2018-09-17T12:09:01.241Z,28.78
2018-09-17T12:11:31.686Z,28.83
2018-09-17T12:13:59.866Z,29.06
2018-09-17T12:16:28.027Z,29.11
2018-09-17T12:18:56.200Z,29.06
2018-09-17T12:21:24.684Z,29.01
2018-09-17T12:23:52.882Z,28.88
2018-09-17T12:26:21.575Z,28.75
2018-09-17T12:28:57.264Z,28.76
2018-09-17T12:31:29.302Z,28.84
2018-09-17T12:33:57.599Z,28.81
2018-09-17T12:36:25.832Z,28.90
2018-09-17T12:38:53.979Z,29.12
2018-09-17T12:41:22.114Z,29.25
2018-09-17T12:43:50.265Z,29.35
2018-09-17T12:46:18.750Z,29.44
2018-09-17T12:48:46.954Z,29.35
2018-09-17T12:51:15.110Z,29.47
2018-09-17T12:53:43.423Z,29.62
2018-09-17T12:56:11.905Z,29.53
2018-09-17T12:58:40.377Z,29.35
2018-09-17T13:01:08.846Z,29.19
2018-09-17T13:03:36.976Z,29.14
2018-09-17T13:06:05.111Z,29.29
2018-09-17T13:08:33.284Z,29.49
2018-09-17T13:11:01.471Z,29.60
2018-09-17T13:13:29.620Z,29.92
2018-09-17T13:15:57.762Z,30.25
2018-09-17T13:18:26.435Z,30.39
2018-09-17T13:20:54.956Z,30.30
2018-09-17T13:23:23.072Z,30.00
2018-09-17T13:25:51.552Z,29.76
2018-09-17T13:28:19.713Z,29.82
2018-09-17T13:30:47.860Z,29.93
2018-09-17T13:33:16.022Z,29.90
2018-09-17T13:35:44.365Z,29.79
2018-09-17T13:38:13.050Z,29.47
2018-09-17T13:40:41.389Z,29.20
2018-09-17T13:43:09.525Z,29.05
2018-09-17T13:45:38.394Z,28.93
2018-09-17T13:48:06.752Z,28.88
2018-09-17T13:50:35.076Z,28.88
2018-09-17T13:53:03.445Z,28.84
2018-09-17T13:55:31.838Z,28.85
2018-09-17T13:58:00.522Z,28.97
2018-09-17T14:00:29.927Z,29.17
2018-09-17T14:02:58.589Z,29.45
2018-09-17T14:05:28.283Z,29.73
2018-09-17T14:07:56.576Z,29.98
2018-09-17T14:10:26.998Z,30.26
2018-09-17T14:12:55.153Z,30.32
2018-09-17T14:15:23.869Z,30.25
2018-09-17T14:17:52.449Z,30.21
2018-09-17T14:20:21.437Z,30.18
2018-09-17T14:22:49.566Z,30.08
2018-09-17T14:25:18.047Z,30.08
2018-09-17T14:27:46.376Z,30.17
2018-09-17T14:30:15.045Z,30.08
2018-09-17T14:32:48.771Z,29.88
2018-09-17T14:35:17.510Z,29.65
2018-09-17T14:37:45.844Z,29.46
2018-09-17T14:40:14.322Z,29.20
2018-09-17T14:42:42.476Z,29.03
2018-09-17T14:45:11.042Z,28.92
2018-09-17T14:47:39.528Z,28.86
2018-09-17T14:50:08.209Z,28.80
2018-09-17T14:52:36.346Z,28.89
2018-09-17T14:55:04.586Z,29.06
2018-09-17T14:57:32.908Z,29.24
2018-09-17T15:00:02.801Z,29.49
2018-09-17T15:02:31.287Z,29.66
2018-09-17T15:04:59.649Z,29.77
2018-09-17T15:07:32.592Z,29.75
2018-09-17T15:10:04.014Z,29.55
2018-09-17T15:12:34.771Z,29.39
2018-09-17T15:15:03.512Z,29.37
2018-09-17T15:17:32.162Z,29.30
2018-09-17T15:20:00.879Z,29.04
2018-09-17T15:22:29.240Z,28.91
2018-09-17T15:24:57.797Z,28.89
2018-09-17T15:27:25.958Z,28.96
2018-09-17T15:29:54.299Z,29.03
2018-09-17T15:32:23.096Z,29.06
2018-09-17T15:34:51.317Z,28.92
2018-09-17T15:37:19.829Z,28.82
2018-09-17T15:39:48.418Z,28.78
2018-09-17T15:42:18.394Z,28.69
2018-09-17T15:44:46.538Z,28.64
2018-09-17T15:47:15.214Z,28.60
2018-09-17T15:49:43.373Z,28.61
2018-09-17T15:52:11.729Z,28.63
2018-09-17T15:54:40.153Z,28.56
2018-09-17T15:57:08.305Z,28.51
2018-09-17T15:59:36.461Z,28.51
2018-09-17T16:02:05.158Z,28.50
2018-09-17T16:04:33.307Z,28.55
2018-09-17T16:07:01.440Z,28.65
2018-09-17T16:09:29.939Z,28.76
2018-09-17T16:11:58.086Z,28.87
2018-09-17T16:14:26.242Z,28.94
2018-09-17T16:16:54.385Z,29.01
2018-09-17T16:19:22.536Z,29.00
2018-09-17T16:21:50.841Z,28.90
2018-09-17T16:24:19.044Z,28.71
2018-09-17T16:26:47.156Z,28.57
2018-09-17T16:29:15.519Z,28.44
2018-09-17T16:31:43.893Z,28.38
2018-09-17T16:34:13.920Z,28.33
2018-09-17T16:36:44.341Z,28.27
2018-09-17T16:39:13.117Z,28.24
2018-09-17T16:41:41.852Z,28.13
2018-09-17T16:44:10.133Z,28.02
2018-09-17T16:46:38.270Z,27.97
2018-09-17T16:49:06.433Z,27.95
2018-09-17T16:51:35.172Z,27.95
2018-09-17T16:54:03.425Z,27.93
2018-09-17T16:56:31.620Z,27.82
2018-09-17T16:58:59.980Z,27.68
2018-09-17T17:01:29.139Z,27.57
2018-09-17T17:03:57.630Z,27.49
2018-09-17T17:06:26.059Z,27.40
2018-09-17T17:08:54.574Z,27.30
2018-09-17T17:11:24.367Z,27.18
2018-09-17T17:13:52.683Z,27.06
2018-09-17T17:16:20.915Z,26.96
2018-09-17T17:18:52.063Z,26.85
2018-09-17T17:21:20.505Z,26.72
2018-09-17T17:23:48.683Z,26.60
2018-09-17T17:29:07.621Z,26.32
2018-09-17T17:31:35.787Z,26.18
2018-09-17T17:34:04.524Z,26.06
2018-09-17T17:36:33.154Z,25.93
2018-09-17T17:39:01.646Z,25.76
2018-09-17T17:41:30.173Z,25.60
2018-09-17T17:43:58.801Z,25.46
2018-09-17T17:46:27.361Z,25.36
2018-09-17T17:48:55.560Z,25.26
2018-09-17T17:51:23.992Z,25.14
2018-09-17T17:53:52.195Z,25.02
2018-09-17T17:56:20.380Z,24.89
2018-09-17T17:58:48.708Z,24.77
2018-09-17T18:01:17.743Z,24.63
2018-09-17T18:03:46.309Z,24.49
2018-09-17T18:06:14.715Z,24.37
2018-09-17T18:08:43.456Z,24.22
2018-09-17T18:11:12.124Z,24.12
2018-09-17T18:13:40.332Z,24.00
2018-09-17T18:16:08.514Z,23.87
2018-09-17T18:18:37.072Z,23.74
2018-09-17T18:21:06.164Z,23.61
2018-09-17T18:23:34.515Z,23.51
2018-09-17T18:26:02.769Z,23.43
2018-09-17T18:28:31.264Z,23.34
2018-09-17T18:30:59.420Z,23.23
2018-09-17T18:33:27.590Z,23.14
2018-09-17T18:35:56.073Z,23.05
2018-09-17T18:38:24.249Z,22.96
2018-09-17T18:40:52.784Z,22.88
2018-09-17T18:43:20.977Z,22.79
2018-09-17T18:45:49.149Z,22.74
2018-09-17T18:48:17.325Z,22.66
2018-09-17T18:50:46.033Z,22.60
2018-09-17T18:53:14.453Z,22.53
2018-09-17T18:55:43.022Z,22.43
2018-09-17T18:58:11.372Z,22.29
2018-09-17T19:00:39.854Z,22.15
2018-09-17T19:03:08.083Z,22.03
2018-09-17T19:05:36.804Z,21.95
2018-09-17T19:08:05.273Z,21.86
2018-09-17T19:10:33.461Z,21.76
2018-09-17T19:13:01.600Z,21.65
2018-09-17T19:15:35.389Z,21.55
2018-09-17T19:18:09.065Z,21.45
2018-09-17T19:20:37.876Z,21.38
2018-09-17T19:23:11.733Z,21.33
2018-09-17T19:25:39.883Z,21.24
2018-09-17T19:28:14.078Z,21.19
2018-09-17T19:30:42.727Z,21.09
2018-09-17T19:33:10.861Z,21.01
2018-09-17T19:35:39.094Z,20.92
2018-09-17T19:38:13.558Z,20.82
2018-09-17T19:40:41.848Z,20.71
2018-09-17T19:43:10.003Z,20.62
2018-09-17T19:45:43.666Z,20.56
2018-09-17T19:48:12.013Z,20.50
2018-09-17T19:50:46.064Z,20.43
2018-09-17T19:53:14.415Z,20.37
2018-09-17T19:55:42.891Z,20.33
2018-09-17T19:58:16.949Z,20.29
2018-09-17T20:00:45.469Z,20.26
2018-09-17T20:03:13.765Z,20.21
2018-09-17T20:05:47.432Z,20.19
2018-09-17T20:08:15.897Z,20.17
2018-09-17T20:10:44.416Z,20.13
2018-09-17T20:13:12.880Z,20.09
2018-09-17T20:15:41.339Z,20.07
2018-09-17T20:18:09.462Z,20.13
2018-09-17T20:20:37.999Z,20.13
2018-09-17T20:23:06.630Z,20.11
2018-09-17T20:25:34.916Z,20.05
2018-09-17T20:28:03.553Z,20.03
2018-09-17T20:30:32.136Z,20.02
2018-09-17T20:33:00.277Z,20.00
2018-09-17T20:35:28.408Z,19.99
2018-09-17T20:37:57.076Z,20.00
2018-09-17T20:40:25.438Z,19.98
2018-09-17T20:42:53.610Z,19.95
2018-09-17T20:45:22.243Z,19.90
2018-09-17T20:47:50.397Z,19.82
2018-09-17T20:50:18.872Z,19.71
2018-09-17T20:52:47.035Z,19.59
2018-09-17T20:55:15.544Z,19.45
2018-09-17T20:57:44.265Z,19.38
2018-09-17T21:00:12.824Z,19.31
2018-09-17T21:02:41.173Z,19.24
2018-09-17T21:05:09.527Z,19.19
2018-09-17T21:07:37.713Z,19.12
2018-09-17T21:10:06.192Z,19.06
2018-09-17T21:12:34.396Z,19.00
2018-09-17T21:15:03.057Z,18.95
2018-09-17T21:17:31.279Z,18.92
2018-09-17T21:19:59.800Z,18.88
2018-09-17T21:22:28.410Z,18.84
2018-09-17T21:24:57.089Z,18.85
2018-09-17T21:27:25.391Z,18.84
2018-09-17T21:29:53.533Z,18.83
2018-09-17T21:32:21.724Z,18.79
2018-09-17T21:34:50.376Z,18.75
2018-09-17T21:37:18.731Z,18.70
2018-09-17T21:39:47.000Z,18.68
2018-09-17T21:42:15.679Z,18.63
2018-09-17T21:44:43.807Z,18.54
2018-09-17T21:47:12.001Z,18.45
2018-09-17T21:49:40.114Z,18.39
2018-09-17T21:52:08.767Z,18.33
2018-09-17T21:54:36.916Z,18.25
2018-09-17T21:57:05.769Z,18.16
2018-09-17T21:59:34.540Z,18.08
2018-09-17T22:02:03.024Z,17.98
2018-09-17T22:04:31.457Z,17.95
2018-09-17T22:06:59.800Z,17.89
2018-09-17T22:09:27.954Z,17.85
2018-09-17T22:11:56.411Z,17.81
2018-09-17T22:14:25.552Z,17.75
2018-09-17T22:16:53.692Z,17.72
2018-09-17T22:19:22.569Z,17.68
2018-09-17T22:21:51.104Z,17.62
2018-09-17T22:24:19.752Z,17.53
2018-09-17T22:26:47.873Z,17.45
2018-09-17T22:29:16.012Z,17.36
2018-09-17T22:31:44.976Z,17.26
2018-09-17T22:34:13.137Z,17.22
2018-09-17T22:36:41.571Z,17.17
2018-09-17T22:39:11.064Z,17.12
2018-09-17T22:41:40.134Z,17.06
2018-09-17T22:44:08.657Z,17.03
2018-09-17T22:46:37.115Z,17.04
2018-09-17T22:49:05.884Z,17.05
2018-09-17T22:51:34.643Z,17.13
2018-09-17T22:54:03.120Z,17.11
2018-09-17T22:56:31.864Z,17.03
2018-09-17T22:59:00.012Z,17.02
2018-09-17T23:01:28.525Z,17.00
2018-09-17T23:03:56.693Z,17.02
2018-09-17T23:06:25.070Z,17.05
2018-09-17T23:08:53.961Z,17.05
2018-09-17T23:11:22.683Z,17.09
2018-09-17T23:13:51.076Z,17.10
2018-09-17T23:16:19.759Z,17.02
2018-09-17T23:18:48.212Z,17.03
2018-09-17T23:21:16.832Z,17.02
2018-09-17T23:23:45.383Z,17.00
2018-09-17T23:26:13.800Z,17.02
2018-09-17T23:28:41.933Z,17.03
2018-09-17T23:31:10.477Z,17.03
2018-09-17T23:33:38.733Z,17.03
2018-09-17T23:36:07.539Z,17.02
2018-09-17T23:38:35.728Z,17.02
2018-09-17T23:41:04.705Z,17.01
2018-09-17T23:43:33.024Z,17.03
2018-09-17T23:46:01.153Z,17.03
2018-09-17T23:48:29.581Z,17.06
2018-09-17T23:50:58.064Z,17.07
2018-09-17T23:53:26.320Z,17.06
2018-09-17T23:55:55.333Z,17.03
2018-09-17T23:58:24.043Z,16.95
